sensor_id;sensor_type;location;lat;lon;timestamp;pressure;altitude;pressure_sealevel;temperature;humidity
10618;BME280;5356;43.526;26.534;2023-02-26T00:01:20;97892.00;;;13.32;97.05
10618;BME280;5356;43.526;26.534;2023-02-26T00:03:49;97897.59;;;13.20;97.92
10618;BME280;5356;43.526;26.534;2023-02-26T00:06:15;97885.28;;;13.24;97.74
10618;BME280;5356;43.526;26.534;2023-02-26T00:08:40;97887.44;;;13.22;97.91
10618;BME280;5356;43.526;26.534;2023-02-26T00:11:07;97883.72;;;13.29;97.42
10618;BME280;5356;43.526;26.534;2023-02-26T00:13:34;97878.63;;;13.27;98.24
10618;BME280;5356;43.526;26.534;2023-02-26T00:16:00;97874.88;;;13.23;98.40
10618;BME280;5356;43.526;26.534;2023-02-26T00:18:26;97885.81;;;13.21;98.73
10618;BME280;5356;43.526;26.534;2023-02-26T00:20:52;97885.56;;;13.23;98.67
10618;BME280;5356;43.526;26.534;2023-02-26T00:23:18;97875.13;;;13.21;98.60
10618;BME280;5356;43.526;26.534;2023-02-26T00:25:45;97875.66;;;13.18;99.69
10618;BME280;5356;43.526;26.534;2023-02-26T00:28:11;97877.53;;;13.18;99.37
10618;BME280;5356;43.526;26.534;2023-02-26T00:30:37;97885.28;;;13.24;99.73
10618;BME280;5356;43.526;26.534;2023-02-26T00:33:03;97881.06;;;13.34;99.61
10618;BME280;5356;43.526;26.534;2023-02-26T00:35:30;97883.16;;;13.21;99.88
10618;BME280;5356;43.526;26.534;2023-02-26T00:37:57;97886.38;;;13.23;100.00
10618;BME280;5356;43.526;26.534;2023-02-26T00:40:40;97863.88;;;13.24;99.58
10618;BME280;5356;43.526;26.534;2023-02-26T00:43:14;97859.63;;;13.23;99.32
10618;BME280;5356;43.526;26.534;2023-02-26T00:45:46;97858.03;;;13.22;99.60
10618;BME280;5356;43.526;26.534;2023-02-26T00:51:50;97860.41;;;13.19;99.28
10618;BME280;5356;43.526;26.534;2023-02-26T00:54:20;97863.38;;;13.22;99.22
10618;BME280;5356;43.526;26.534;2023-02-26T00:56:50;97865.53;;;13.25;98.58
10618;BME280;5356;43.526;26.534;2023-02-26T00:59:16;97864.44;;;13.21;98.57
10618;BME280;5356;43.526;26.534;2023-02-26T01:01:42;97864.97;;;13.23;98.42
10618;BME280;5356;43.526;26.534;2023-02-26T01:04:08;97867.38;;;13.15;98.86
10618;BME280;5356;43.526;26.534;2023-02-26T01:06:39;97870.59;;;13.12;98.98
10618;BME280;5356;43.526;26.534;2023-02-26T01:09:25;97883.16;;;13.21;98.38
10618;BME280;5356;43.526;26.534;2023-02-26T01:11:52;97881.56;;;13.20;98.90
10618;BME280;5356;43.526;26.534;2023-02-26T01:14:19;97871.91;;;13.24;98.72
10618;BME280;5356;43.526;26.534;2023-02-26T01:17:07;97884.50;;;13.19;99.14
10618;BME280;5356;43.526;26.534;2023-02-26T01:24:47;97884.22;;;13.20;99.00
10618;BME280;5356;43.526;26.534;2023-02-26T01:27:13;97885.31;;;13.30;98.13
10618;BME280;5356;43.526;26.534;2023-02-26T01:29:39;97891.75;;;13.29;98.97
10618;BME280;5356;43.526;26.534;2023-02-26T01:32:06;97894.97;;;13.25;98.12
10618;BME280;5356;43.526;26.534;2023-02-26T01:34:38;97890.13;;;13.22;98.62
10618;BME280;5356;43.526;26.534;2023-02-26T01:42:30;97902.41;;;13.23;98.56
10618;BME280;5356;43.526;26.534;2023-02-26T01:45:03;97904.56;;;13.27;98.54
10618;BME280;5356;43.526;26.534;2023-02-26T01:47:44;97904.03;;;13.19;98.38
10618;BME280;5356;43.526;26.534;2023-02-26T01:50:18;97906.41;;;13.21;97.98
10618;BME280;5356;43.526;26.534;2023-02-26T01:55:15;97923.03;;;13.28;98.06
10618;BME280;5356;43.526;26.534;2023-02-26T01:57:41;97920.88;;;13.30;97.85
10618;BME280;5356;43.526;26.534;2023-02-26T02:00:08;97920.88;;;13.35;98.92
10618;BME280;5356;43.526;26.534;2023-02-26T02:02:33;97917.41;;;13.45;98.76
10618;BME280;5356;43.526;26.534;2023-02-26T02:05:11;97924.91;;;13.48;98.78
10618;BME280;5356;43.526;26.534;2023-02-26T02:07:39;97912.84;;;13.51;98.80
10618;BME280;5356;43.526;26.534;2023-02-26T02:10:05;97917.38;;;13.50;98.60
10618;BME280;5356;43.526;26.534;2023-02-26T02:12:37;97920.88;;;13.45;98.73
10618;BME280;5356;43.526;26.534;2023-02-26T02:18:07;97928.09;;;13.60;98.54
10618;BME280;5356;43.526;26.534;2023-02-26T02:23:26;97931.28;;;13.67;98.17
10618;BME280;5356;43.526;26.534;2023-02-26T02:26:17;97938.50;;;13.67;98.34
10618;BME280;5356;43.526;26.534;2023-02-26T02:31:36;97948.41;;;13.77;98.32
10618;BME280;5356;43.526;26.534;2023-02-26T02:34:11;97947.31;;;13.78;98.55
10618;BME280;5356;43.526;26.534;2023-02-26T02:39:22;97952.13;;;13.81;98.54
10618;BME280;5356;43.526;26.534;2023-02-26T02:41:50;97958.00;;;13.83;98.27
10618;BME280;5356;43.526;26.534;2023-02-26T02:44:18;97958.00;;;13.83;98.40
10618;BME280;5356;43.526;26.534;2023-02-26T02:46:49;97962.56;;;13.72;98.73
10618;BME280;5356;43.526;26.534;2023-02-26T02:49:22;97965.53;;;13.70;98.66
10618;BME280;5356;43.526;26.534;2023-02-26T02:52:00;97966.06;;;13.73;98.94
10618;BME280;5356;43.526;26.534;2023-02-26T02:54:38;97959.09;;;13.77;99.40
10618;BME280;5356;43.526;26.534;2023-02-26T02:57:33;97959.91;;;13.72;99.60
10618;BME280;5356;43.526;26.534;2023-02-26T03:00:04;97973.03;;;13.79;100.00
10618;BME280;5356;43.526;26.534;2023-02-26T03:05:15;97965.50;;;13.91;99.37
10618;BME280;5356;43.526;26.534;2023-02-26T03:07:50;97964.41;;;13.97;99.28
10618;BME280;5356;43.526;26.534;2023-02-26T03:10:17;97967.63;;;14.04;98.58
10618;BME280;5356;43.526;26.534;2023-02-26T03:12:43;97967.88;;;14.08;99.32
10618;BME280;5356;43.526;26.534;2023-02-26T03:15:09;97982.53;;;14.21;99.95
10618;BME280;5356;43.526;26.534;2023-02-26T03:20:30;97980.38;;;14.33;98.11
10618;BME280;5356;43.526;26.534;2023-02-26T03:25:28;97985.66;;;14.48;97.54
10618;BME280;5356;43.526;26.534;2023-02-26T03:28:17;97996.69;;;14.36;97.42
10618;BME280;5356;43.526;26.534;2023-02-26T03:31:14;97998.06;;;14.29;97.01
10618;BME280;5356;43.526;26.534;2023-02-26T03:34:14;97977.47;;;14.19;98.19
10618;BME280;5356;43.526;26.534;2023-02-26T03:36:55;97978.56;;;14.08;98.35
10618;BME280;5356;43.526;26.534;2023-02-26T03:39:36;97986.06;;;14.01;99.45
10618;BME280;5356;43.526;26.534;2023-02-26T03:42:42;97992.25;;;13.91;99.68
10618;BME280;5356;43.526;26.534;2023-02-26T03:45:16;97998.72;;;13.85;99.68
10618;BME280;5356;43.526;26.534;2023-02-26T03:47:45;98021.72;;;13.86;99.81
10618;BME280;5356;43.526;26.534;2023-02-26T03:50:34;98004.31;;;13.88;99.87
10618;BME280;5356;43.526;26.534;2023-02-26T03:53:04;98013.44;;;13.82;99.36
10618;BME280;5356;43.526;26.534;2023-02-26T03:55:35;98012.09;;;13.80;99.19
10618;BME280;5356;43.526;26.534;2023-02-26T03:58:02;98012.34;;;13.88;98.90
10618;BME280;5356;43.526;26.534;2023-02-26T04:00:30;97998.66;;;13.95;98.62
10618;BME280;5356;43.526;26.534;2023-02-26T04:03:10;98002.19;;;13.90;99.32
10618;BME280;5356;43.526;26.534;2023-02-26T04:05:43;98008.31;;;14.01;100.00
10618;BME280;5356;43.526;26.534;2023-02-26T04:08:10;98014.72;;;14.05;99.65
10618;BME280;5356;43.526;26.534;2023-02-26T04:10:52;98005.63;;;14.06;100.00
10618;BME280;5356;43.526;26.534;2023-02-26T04:13:19;98006.69;;;14.05;100.00
10618;BME280;5356;43.526;26.534;2023-02-26T04:15:44;98015.53;;;14.01;99.96
10618;BME280;5356;43.526;26.534;2023-02-26T04:18:09;98006.16;;;14.13;100.00
10618;BME280;5356;43.526;26.534;2023-02-26T04:20:35;98012.03;;;14.15;100.00
10618;BME280;5356;43.526;26.534;2023-02-26T04:23:01;98013.34;;;14.23;99.91
10618;BME280;5356;43.526;26.534;2023-02-26T04:25:26;98017.09;;;14.17;100.00
10618;BME280;5356;43.526;26.534;2023-02-26T04:27:51;98022.72;;;14.21;99.63
10618;BME280;5356;43.526;26.534;2023-02-26T04:30:17;98028.13;;;14.10;100.00
10618;BME280;5356;43.526;26.534;2023-02-26T04:32:42;98021.13;;;14.14;100.00
10618;BME280;5356;43.526;26.534;2023-02-26T04:35:08;98023.25;;;14.18;100.00
10618;BME280;5356;43.526;26.534;2023-02-26T04:37:33;98021.91;;;14.20;100.00
10618;BME280;5356;43.526;26.534;2023-02-26T04:39:59;98030.25;;;14.19;100.00
10618;BME280;5356;43.526;26.534;2023-02-26T04:42:24;98024.59;;;14.25;100.00
10618;BME280;5356;43.526;26.534;2023-02-26T04:44:50;98017.34;;;14.26;100.00
10618;BME280;5356;43.526;26.534;2023-02-26T04:47:15;98029.16;;;14.20;99.88
10618;BME280;5356;43.526;26.534;2023-02-26T04:49:41;98023.78;;;14.25;100.00
10618;BME280;5356;43.526;26.534;2023-02-26T04:52:06;98022.72;;;14.26;99.07
10618;BME280;5356;43.526;26.534;2023-02-26T04:54:32;98015.22;;;14.28;98.71
10618;BME280;5356;43.526;26.534;2023-02-26T04:56:57;98019.47;;;14.34;98.21
10618;BME280;5356;43.526;26.534;2023-02-26T04:59:22;98022.69;;;14.41;97.34
10618;BME280;5356;43.526;26.534;2023-02-26T05:01:48;98021.34;;;14.44;97.39
10618;BME280;5356;43.526;26.534;2023-02-26T05:04:14;98018.91;;;14.47;97.76
10618;BME280;5356;43.526;26.534;2023-02-26T05:06:39;98023.44;;;14.57;97.36
10618;BME280;5356;43.526;26.534;2023-02-26T05:09:05;98028.53;;;14.64;97.33
10618;BME280;5356;43.526;26.534;2023-02-26T05:11:30;98033.59;;;14.65;97.28
10618;BME280;5356;43.526;26.534;2023-02-26T05:13:56;98034.91;;;14.73;97.03
10618;BME280;5356;43.526;26.534;2023-02-26T05:16:21;98041.03;;;14.84;97.02
10618;BME280;5356;43.526;26.534;2023-02-26T05:18:47;98045.03;;;14.86;97.19
10618;BME280;5356;43.526;26.534;2023-02-26T05:21:12;98049.00;;;14.94;97.39
10618;BME280;5356;43.526;26.534;2023-02-26T05:23:37;98034.25;;;14.96;96.70
10618;BME280;5356;43.526;26.534;2023-02-26T05:26:03;98037.47;;;14.98;96.11
10618;BME280;5356;43.526;26.534;2023-02-26T05:28:29;98036.91;;;15.01;96.12
10618;BME280;5356;43.526;26.534;2023-02-26T05:30:55;98038.25;;;14.99;95.17
10618;BME280;5356;43.526;26.534;2023-02-26T05:33:22;98047.63;;;15.07;95.33
10618;BME280;5356;43.526;26.534;2023-02-26T05:35:47;98043.81;;;15.13;95.67
10618;BME280;5356;43.526;26.534;2023-02-26T05:38:13;98036.03;;;15.11;94.89
10618;BME280;5356;43.526;26.534;2023-02-26T05:40:38;98042.72;;;15.19;95.33
10618;BME280;5356;43.526;26.534;2023-02-26T05:43:04;98039.50;;;15.17;95.17
10618;BME280;5356;43.526;26.534;2023-02-26T05:45:29;98048.09;;;15.14;95.16
10618;BME280;5356;43.526;26.534;2023-02-26T05:47:55;98048.66;;;15.11;94.35
10618;BME280;5356;43.526;26.534;2023-02-26T05:50:20;98042.22;;;15.12;94.74
10618;BME280;5356;43.526;26.534;2023-02-26T05:52:46;98043.03;;;15.07;94.19
10618;BME280;5356;43.526;26.534;2023-02-26T05:55:12;98043.53;;;15.14;94.87
10618;BME280;5356;43.526;26.534;2023-02-26T05:57:37;98045.50;;;14.98;93.89
10618;BME280;5356;43.526;26.534;2023-02-26T06:00:05;98036.88;;;15.12;94.52
10618;BME280;5356;43.526;26.534;2023-02-26T06:02:31;98040.06;;;15.14;94.64
10618;BME280;5356;43.526;26.534;2023-02-26T06:04:56;98039.50;;;15.17;94.36
10618;BME280;5356;43.526;26.534;2023-02-26T06:07:22;98042.47;;;15.15;94.07
10618;BME280;5356;43.526;26.534;2023-02-26T06:09:48;98038.94;;;15.20;93.97
10618;BME280;5356;43.526;26.534;2023-02-26T06:12:14;98051.00;;;15.22;93.46
10618;BME280;5356;43.526;26.534;2023-02-26T06:14:39;98045.91;;;15.21;93.80
10618;BME280;5356;43.526;26.534;2023-02-26T06:17:05;98053.13;;;15.25;93.65
10618;BME280;5356;43.526;26.534;2023-02-26T06:19:31;98050.38;;;15.36;93.10
10618;BME280;5356;43.526;26.534;2023-02-26T06:21:57;98053.41;;;15.24;93.45
10618;BME280;5356;43.526;26.534;2023-02-26T06:24:22;98052.88;;;15.22;93.63
10618;BME280;5356;43.526;26.534;2023-02-26T06:26:48;98062.00;;;15.21;93.78
10618;BME280;5356;43.526;26.534;2023-02-26T06:29:14;98052.03;;;15.32;94.08
10618;BME280;5356;43.526;26.534;2023-02-26T06:31:40;98046.09;;;15.35;94.25
10618;BME280;5356;43.526;26.534;2023-02-26T06:34:05;98057.06;;;15.38;94.72
10618;BME280;5356;43.526;26.534;2023-02-26T06:36:34;98045.84;;;15.31;94.54
10618;BME280;5356;43.526;26.534;2023-02-26T06:38:59;98037.50;;;15.38;95.06
10618;BME280;5356;43.526;26.534;2023-02-26T06:41:25;98037.66;;;15.52;94.91
10618;BME280;5356;43.526;26.534;2023-02-26T06:43:50;98038.16;;;15.54;94.04
10618;BME280;5356;43.526;26.534;2023-02-26T06:46:16;98046.41;;;15.62;93.82
10618;BME280;5356;43.526;26.534;2023-02-26T06:48:44;98053.41;;;15.63;93.64
10618;BME280;5356;43.526;26.534;2023-02-26T06:51:09;98043.47;;;15.69;93.61
10618;BME280;5356;43.526;26.534;2023-02-26T06:53:35;98044.47;;;15.78;93.45
10618;BME280;5356;43.526;26.534;2023-02-26T06:56:00;98054.81;;;15.90;93.19
10618;BME280;5356;43.526;26.534;2023-02-26T06:58:26;98058.97;;;16.06;93.37
10618;BME280;5356;43.526;26.534;2023-02-26T07:00:51;98060.75;;;16.16;92.99
10618;BME280;5356;43.526;26.534;2023-02-26T07:03:17;98058.38;;;16.14;92.21
10618;BME280;5356;43.526;26.534;2023-02-26T07:05:44;98060.72;;;16.21;91.87
10618;BME280;5356;43.526;26.534;2023-02-26T07:08:10;98060.09;;;16.29;91.88
10618;BME280;5356;43.526;26.534;2023-02-26T07:10:36;98060.56;;;16.36;90.88
10618;BME280;5356;43.526;26.534;2023-02-26T07:13:02;98058.31;;;16.44;89.80
10618;BME280;5356;43.526;26.534;2023-02-26T07:15:28;98060.38;;;16.52;90.33
10618;BME280;5356;43.526;26.534;2023-02-26T07:17:54;98059.25;;;16.58;90.28
10618;BME280;5356;43.526;26.534;2023-02-26T07:20:19;98051.91;;;16.64;89.56
10618;BME280;5356;43.526;26.534;2023-02-26T07:22:46;98048.91;;;16.70;88.76
10618;BME280;5356;43.526;26.534;2023-02-26T07:25:12;98055.94;;;16.66;88.21
10618;BME280;5356;43.526;26.534;2023-02-26T07:27:38;98061.81;;;16.68;87.93
10618;BME280;5356;43.526;26.534;2023-02-26T07:30:05;98061.59;;;16.65;87.45
10618;BME280;5356;43.526;26.534;2023-02-26T07:32:31;98063.63;;;16.73;87.60
10618;BME280;5356;43.526;26.534;2023-02-26T07:34:56;98067.72;;;16.70;86.76
10618;BME280;5356;43.526;26.534;2023-02-26T07:37:22;98061.78;;;16.73;87.43
10618;BME280;5356;43.526;26.534;2023-02-26T07:39:48;98064.13;;;16.80;87.79
10618;BME280;5356;43.526;26.534;2023-02-26T07:42:15;98070.78;;;16.88;87.62
10618;BME280;5356;43.526;26.534;2023-02-26T07:44:40;98065.81;;;16.95;87.09
10618;BME280;5356;43.526;26.534;2023-02-26T07:47:06;98068.81;;;16.93;86.34
10618;BME280;5356;43.526;26.534;2023-02-26T07:49:32;98063.44;;;16.93;87.50
10618;BME280;5356;43.526;26.534;2023-02-26T07:51:58;98058.84;;;16.94;86.59
10618;BME280;5356;43.526;26.534;2023-02-26T07:54:24;98071.19;;;16.95;85.68
10618;BME280;5356;43.526;26.534;2023-02-26T07:56:50;98071.13;;;17.00;85.74
10618;BME280;5356;43.526;26.534;2023-02-26T07:59:15;98063.34;;;16.98;87.21
10618;BME280;5356;43.526;26.534;2023-02-26T08:01:41;98066.56;;;17.00;84.82
10618;BME280;5356;43.526;26.534;2023-02-26T08:04:06;98068.97;;;17.02;85.27
10618;BME280;5356;43.526;26.534;2023-02-26T08:06:32;98065.03;;;16.94;84.89
10618;BME280;5356;43.526;26.534;2023-02-26T08:08:57;98058.22;;;17.02;85.86
10618;BME280;5356;43.526;26.534;2023-02-26T08:11:23;98065.69;;;17.05;85.86
10618;BME280;5356;43.526;26.534;2023-02-26T08:13:48;98064.66;;;17.01;84.86
10618;BME280;5356;43.526;26.534;2023-02-26T08:16:14;98058.22;;;17.02;84.59
10618;BME280;5356;43.526;26.534;2023-02-26T08:18:39;98062.38;;;17.13;84.57
10618;BME280;5356;43.526;26.534;2023-02-26T08:21:05;98074.34;;;17.21;84.31
10618;BME280;5356;43.526;26.534;2023-02-26T08:23:30;98060.03;;;17.25;83.86
10618;BME280;5356;43.526;26.534;2023-02-26T08:26:05;98056.69;;;17.34;83.73
10618;BME280;5356;43.526;26.534;2023-02-26T08:28:32;98062.22;;;17.42;84.13
10618;BME280;5356;43.526;26.534;2023-02-26T08:30:59;98061.84;;;17.49;83.68
10618;BME280;5356;43.526;26.534;2023-02-26T08:33:25;98060.75;;;17.50;82.50
10618;BME280;5356;43.526;26.534;2023-02-26T08:35:52;98057.41;;;17.58;82.27
10618;BME280;5356;43.526;26.534;2023-02-26T08:38:19;98059.44;;;17.66;81.50
10618;BME280;5356;43.526;26.534;2023-02-26T08:40:44;98059.00;;;17.59;80.61
10618;BME280;5356;43.526;26.534;2023-02-26T08:43:13;98047.78;;;17.52;78.76
10618;BME280;5356;43.526;26.534;2023-02-26T08:45:38;98059.44;;;17.66;79.43
10618;BME280;5356;43.526;26.534;2023-02-26T08:48:08;98054.41;;;17.79;79.08
10618;BME280;5356;43.526;26.534;2023-02-26T08:50:33;98060.78;;;17.83;78.16
10618;BME280;5356;43.526;26.534;2023-02-26T08:53:09;98059.94;;;17.87;76.87
10618;BME280;5356;43.526;26.534;2023-02-26T08:55:35;98062.66;;;18.01;76.96
10618;BME280;5356;43.526;26.534;2023-02-26T08:58:06;98052.41;;;18.03;74.51
10618;BME280;5356;43.526;26.534;2023-02-26T09:00:32;98052.00;;;18.10;74.91
10618;BME280;5356;43.526;26.534;2023-02-26T09:02:58;98048.38;;;18.14;74.50
10618;BME280;5356;43.526;26.534;2023-02-26T09:05:24;98053.59;;;18.25;73.30
10618;BME280;5356;43.526;26.534;2023-02-26T09:07:49;98048.22;;;18.38;73.01
10618;BME280;5356;43.526;26.534;2023-02-26T09:10:15;98047.63;;;18.42;72.16
10618;BME280;5356;43.526;26.534;2023-02-26T09:12:41;98053.31;;;18.54;72.40
10618;BME280;5356;43.526;26.534;2023-02-26T09:15:07;98061.31;;;18.45;71.93
10618;BME280;5356;43.526;26.534;2023-02-26T09:17:34;98052.84;;;18.52;72.75
10618;BME280;5356;43.526;26.534;2023-02-26T09:20:00;98047.31;;;18.57;73.82
10618;BME280;5356;43.526;26.534;2023-02-26T09:22:26;98052.84;;;18.52;72.24
10618;BME280;5356;43.526;26.534;2023-02-26T09:24:51;98046.34;;;18.53;71.43
10618;BME280;5356;43.526;26.534;2023-02-26T09:27:17;98044.16;;;18.55;69.97
10618;BME280;5356;43.526;26.534;2023-02-26T09:29:42;98050.44;;;18.64;70.80
10618;BME280;5356;43.526;26.534;2023-02-26T09:32:08;98053.31;;;18.68;70.90
10618;BME280;5356;43.526;26.534;2023-02-26T09:34:35;98040.28;;;18.75;68.38
10618;BME280;5356;43.526;26.534;2023-02-26T09:37:06;98039.84;;;18.68;68.31
10618;BME280;5356;43.526;26.534;2023-02-26T09:39:33;98055.72;;;18.69;67.60
10618;BME280;5356;43.526;26.534;2023-02-26T09:42:16;98038.16;;;18.72;66.63
10618;BME280;5356;43.526;26.534;2023-02-26T09:44:46;98051.75;;;18.67;67.10
10618;BME280;5356;43.526;26.534;2023-02-26T09:47:30;98051.13;;;18.70;67.46
10618;BME280;5356;43.526;26.534;2023-02-26T09:50:10;98046.66;;;18.79;67.93
10618;BME280;5356;43.526;26.534;2023-02-26T09:52:39;98037.25;;;18.76;67.31
10618;BME280;5356;43.526;26.534;2023-02-26T09:55:37;98051.06;;;18.75;67.48
10618;BME280;5356;43.526;26.534;2023-02-26T09:58:18;98029.03;;;18.68;66.02
10618;BME280;5356;43.526;26.534;2023-02-26T10:09:21;98044.88;;;18.88;65.01
10618;BME280;5356;43.526;26.534;2023-02-26T10:12:14;98057.63;;;18.96;65.38
10618;BME280;5356;43.526;26.534;2023-02-26T10:14:59;98048.72;;;18.96;63.10
10618;BME280;5356;43.526;26.534;2023-02-26T10:20:53;98027.81;;;19.01;61.95
10618;BME280;5356;43.526;26.534;2023-02-26T10:23:27;98037.41;;;19.07;62.19
10618;BME280;5356;43.526;26.534;2023-02-26T10:34:55;98021.25;;;19.30;60.04
10618;BME280;5356;43.526;26.534;2023-02-26T10:37:08;98022.19;;;19.25;60.07
10618;BME280;5356;43.526;26.534;2023-02-26T10:39:43;98018.53;;;19.30;60.66
10618;BME280;5356;43.526;26.534;2023-02-26T10:42:15;98035.44;;;19.36;61.15
10618;BME280;5356;43.526;26.534;2023-02-26T10:47:58;98043.34;;;19.32;60.16
10618;BME280;5356;43.526;26.534;2023-02-26T10:50:05;98053.31;;;19.45;60.64
10618;BME280;5356;43.526;26.534;2023-02-26T10:52:34;98069.41;;;19.50;60.50
10618;BME280;5356;43.526;26.534;2023-02-26T10:55:06;98066.72;;;19.50;59.53
10618;BME280;5356;43.526;26.534;2023-02-26T10:57:43;98070.00;;;19.47;59.26
10618;BME280;5356;43.526;26.534;2023-02-26T11:00:17;98057.78;;;19.50;58.82
10618;BME280;5356;43.526;26.534;2023-02-26T11:02:45;98054.59;;;19.48;57.89
10618;BME280;5356;43.526;26.534;2023-02-26T11:05:17;98044.97;;;19.56;57.86
10618;BME280;5356;43.526;26.534;2023-02-26T11:07:48;98081.81;;;19.51;57.50
10618;BME280;5356;43.526;26.534;2023-02-26T11:10:18;98053.19;;;19.50;57.22
10618;BME280;5356;43.526;26.534;2023-02-26T11:12:44;98060.56;;;19.59;57.11
10618;BME280;5356;43.526;26.534;2023-02-26T11:15:13;98075.50;;;19.56;56.11
10618;BME280;5356;43.526;26.534;2023-02-26T11:17:39;98064.88;;;19.60;55.92
10618;BME280;5356;43.526;26.534;2023-02-26T11:22:48;98055.44;;;19.71;56.01
10618;BME280;5356;43.526;26.534;2023-02-26T11:25:17;98042.63;;;19.63;55.34
10618;BME280;5356;43.526;26.534;2023-02-26T11:27:44;98026.53;;;19.58;55.40
10618;BME280;5356;43.526;26.534;2023-02-26T11:30:20;98038.81;;;19.64;55.20
10618;BME280;5356;43.526;26.534;2023-02-26T11:32:49;98032.84;;;19.67;55.13
10618;BME280;5356;43.526;26.534;2023-02-26T11:35:30;98056.44;;;19.61;55.26
10618;BME280;5356;43.526;26.534;2023-02-26T11:37:58;98049.53;;;19.69;55.65
10618;BME280;5356;43.526;26.534;2023-02-26T11:40:32;98050.34;;;19.69;55.29
10618;BME280;5356;43.526;26.534;2023-02-26T11:43:03;98049.88;;;19.67;55.56
10618;BME280;5356;43.526;26.534;2023-02-26T11:45:30;98042.13;;;19.61;55.63
10618;BME280;5356;43.526;26.534;2023-02-26T11:48:01;98029.25;;;19.58;55.09
10618;BME280;5356;43.526;26.534;2023-02-26T11:50:29;98053.69;;;19.52;55.28
10618;BME280;5356;43.526;26.534;2023-02-26T11:53:03;98043.38;;;19.55;55.19
10618;BME280;5356;43.526;26.534;2023-02-26T11:55:37;98042.41;;;19.50;55.02
10618;BME280;5356;43.526;26.534;2023-02-26T11:58:15;98031.28;;;19.52;54.62
10618;BME280;5356;43.526;26.534;2023-02-26T12:00:41;98053.69;;;19.52;54.18
10618;BME280;5356;43.526;26.534;2023-02-26T12:03:14;98060.31;;;19.46;54.05
10618;BME280;5356;43.526;26.534;2023-02-26T12:05:40;98063.31;;;19.45;53.84
10618;BME280;5356;43.526;26.534;2023-02-26T12:08:17;98063.69;;;19.52;53.78
10618;BME280;5356;43.526;26.534;2023-02-26T12:25:07;98058.66;;;19.73;53.80
10618;BME280;5356;43.526;26.534;2023-02-26T12:36:59;98070.50;;;19.49;53.57
10618;BME280;5356;43.526;26.534;2023-02-26T12:42:31;98071.53;;;19.40;53.69
10618;BME280;5356;43.526;26.534;2023-02-26T12:45:23;98076.63;;;19.41;54.09
10618;BME280;5356;43.526;26.534;2023-02-26T12:59:30;98065.56;;;19.29;52.89
10618;BME280;5356;43.526;26.534;2023-02-26T13:11:00;98051.50;;;19.04;52.96
10618;BME280;5356;43.526;26.534;2023-02-26T13:19:59;98056.31;;;18.94;53.48
10618;BME280;5356;43.526;26.534;2023-02-26T13:22:32;98059.44;;;18.87;53.42
10618;BME280;5356;43.526;26.534;2023-02-26T13:25:15;98056.66;;;18.78;53.86
10618;BME280;5356;43.526;26.534;2023-02-26T13:27:43;98061.53;;;18.76;54.15
10618;BME280;5356;43.526;26.534;2023-02-26T13:30:22;98069.63;;;18.76;54.29
10618;BME280;5356;43.526;26.534;2023-02-26T13:32:53;98078.84;;;18.75;54.48
10618;BME280;5356;43.526;26.534;2023-02-26T13:35:30;98075.34;;;18.75;54.55
10618;BME280;5356;43.526;26.534;2023-02-26T13:37:59;98053.44;;;18.76;54.20
10618;BME280;5356;43.526;26.534;2023-02-26T13:46:19;98095.81;;;18.76;54.71
10618;BME280;5356;43.526;26.534;2023-02-26T13:51:48;98090.50;;;18.71;54.85
10618;BME280;5356;43.526;26.534;2023-02-26T13:57:06;98083.22;;;18.57;55.51
10618;BME280;5356;43.526;26.534;2023-02-26T14:07:16;98084.50;;;18.60;55.32
10618;BME280;5356;43.526;26.534;2023-02-26T14:10:03;98093.19;;;18.57;55.73
10618;BME280;5356;43.526;26.534;2023-02-26T14:12:41;98088.81;;;18.61;55.79
10618;BME280;5356;43.526;26.534;2023-02-26T14:17:50;98097.75;;;18.43;55.60
10618;BME280;5356;43.526;26.534;2023-02-26T14:20:20;98096.97;;;18.42;55.43
10618;BME280;5356;43.526;26.534;2023-02-26T14:22:57;98094.28;;;18.42;55.50
10618;BME280;5356;43.526;26.534;2023-02-26T14:26:02;98083.09;;;18.35;55.50
10618;BME280;5356;43.526;26.534;2023-02-26T14:28:33;98086.78;;;18.39;55.21
10618;BME280;5356;43.526;26.534;2023-02-26T14:33:29;98101.66;;;18.36;55.44
10618;BME280;5356;43.526;26.534;2023-02-26T14:36:00;98094.34;;;18.37;55.38
10618;BME280;5356;43.526;26.534;2023-02-26T14:38:32;98101.97;;;18.35;55.14
10618;BME280;5356;43.526;26.534;2023-02-26T14:41:32;98089.44;;;18.25;55.23
10618;BME280;5356;43.526;26.534;2023-02-26T14:46:42;98108.72;;;18.18;55.22
10618;BME280;5356;43.526;26.534;2023-02-26T14:49:17;98111.50;;;18.13;55.23
10618;BME280;5356;43.526;26.534;2023-02-26T15:00:28;98123.19;;;17.90;56.16
10618;BME280;5356;43.526;26.534;2023-02-26T15:06:41;98133.78;;;17.86;56.53
10618;BME280;5356;43.526;26.534;2023-02-26T15:17:37;98156.91;;;17.87;57.21
10618;BME280;5356;43.526;26.534;2023-02-26T15:25:43;98157.13;;;17.91;57.42
10618;BME280;5356;43.526;26.534;2023-02-26T15:28:21;98141.53;;;17.88;57.91
10618;BME280;5356;43.526;26.534;2023-02-26T15:30:50;98147.25;;;17.86;57.75
10618;BME280;5356;43.526;26.534;2023-02-26T15:33:20;98153.91;;;17.89;57.61
10618;BME280;5356;43.526;26.534;2023-02-26T15:35:48;98156.72;;;17.84;57.56
10618;BME280;5356;43.526;26.534;2023-02-26T15:38:14;98160.47;;;17.83;57.27
10618;BME280;5356;43.526;26.534;2023-02-26T15:40:40;98160.19;;;17.84;57.27
10618;BME280;5356;43.526;26.534;2023-02-26T15:43:07;98158.13;;;17.76;57.32
10618;BME280;5356;43.526;26.534;2023-02-26T15:45:40;98153.78;;;17.80;57.44
10618;BME280;5356;43.526;26.534;2023-02-26T15:48:10;98153.13;;;17.69;57.34
10618;BME280;5356;43.526;26.534;2023-02-26T15:50:39;98165.41;;;17.76;57.59
10618;BME280;5356;43.526;26.534;2023-02-26T15:53:08;98168.75;;;17.67;56.12
10618;BME280;5356;43.526;26.534;2023-02-26T15:55:44;98173.78;;;17.74;56.20
10618;BME280;5356;43.526;26.534;2023-02-26T15:58:18;98167.16;;;17.66;56.01
10618;BME280;5356;43.526;26.534;2023-02-26T16:00:51;98169.34;;;17.64;55.92
10618;BME280;5356;43.526;26.534;2023-02-26T16:03:24;98171.00;;;17.60;55.75